Time;durP1;ratioP1;P1;durP2;ratioP2;P2;SDS_P1;SDS_P2;PMS_P1;PMS_P2;Temp;Humidity;BMP_temperature;BMP_pressure;BME280_temperature;BME280_humidity;BME280_pressure;Samples;Min_cycle;Max_cycle;Signal;HPM_P1;HPM_P2
2022/02/02 00:02:25;;;;;;;15.25;9.52;;;;;;;-1.61;100.00;92200.13;5032193;28;20041;-84
2022/02/02 00:05:00;;;;;;;16.33;10.30;;;;;;;-1.61;100.00;92182.50;5032054;28;20536;-85
2022/02/02 00:07:34;;;;;;;14.35;9.38;;;;;;;-1.93;100.00;92134.59;5032102;28;20095;-84
2022/02/02 00:10:12;;;;;;;12.40;9.13;;;;;;;-1.43;100.00;92172.22;5031940;28;20137;-84
2022/02/02 00:12:44;;;;;;;12.85;8.65;;;;;;;-1.35;100.00;92194.88;5032011;28;20056;-85
2022/02/02 00:15:43;;;;;;;15.07;10.73;;;;;;;-1.63;100.00;92170.06;5032226;28;20045;-84
2022/02/02 00:18:34;;;;;;;20.08;12.48;;;;;;;-1.42;100.00;92196.47;5032012;28;20049;-84
2022/02/02 00:21:05;;;;;;;22.38;13.65;;;;;;;-1.98;100.00;92129.25;5032255;28;20441;-84
2022/02/02 00:23:37;;;;;;;15.50;10.40;;;;;;;-2.04;100.00;92129.88;5032005;28;20050;-84
2022/02/02 00:26:09;;;;;;;12.98;8.77;;;;;;;-1.94;100.00;92140.53;5032406;28;20165;-84
2022/02/02 00:28:41;;;;;;;14.35;9.73;;;;;;;-1.59;100.00;92177.31;5032184;28;20568;-84
2022/02/02 00:31:12;;;;;;;15.25;9.77;;;;;;;-1.42;100.00;92185.59;5031960;28;20049;-85
2022/02/02 00:33:43;;;;;;;16.90;10.52;;;;;;;-1.23;100.00;92189.47;5032435;28;20123;-84
2022/02/02 00:36:14;;;;;;;11.18;7.43;;;;;;;-1.13;100.00;92191.78;5031974;28;20049;-85
2022/02/02 00:38:41;;;;;;;12.30;8.55;;;;;;;-1.67;100.00;92103.34;5031916;28;20045;-87
2022/02/02 00:41:09;;;;;;;16.35;9.65;;;;;;;-0.89;100.00;92200.22;5031554;28;20049;-87
2022/02/02 00:43:39;;;;;;;13.77;8.50;;;;;;;-0.93;100.00;92187.13;5032322;28;20058;-88
2022/02/02 00:46:06;;;;;;;13.52;8.50;;;;;;;-1.21;100.00;92130.41;5032085;28;20053;-88
2022/02/02 00:48:34;;;;;;;12.48;8.18;;;;;;;-0.92;100.00;92167.78;5031846;28;20045;-87
2022/02/02 00:51:02;;;;;;;12.50;8.27;;;;;;;-1.11;100.00;92131.94;5032237;28;20111;-87
2022/02/02 00:53:28;;;;;;;11.65;7.80;;;;;;;-0.71;100.00;92189.88;5031781;28;20140;-86
2022/02/02 00:55:55;;;;;;;13.60;9.23;;;;;;;-1.03;100.00;92139.47;5031050;28;20049;-87
2022/02/02 00:58:24;;;;;;;15.73;10.80;;;;;;;-1.02;100.00;92162.94;5031758;28;20057;-88
2022/02/02 01:00:51;;;;;;;15.85;9.85;;;;;;;-0.96;100.00;92169.84;5031907;28;20429;-86
2022/02/02 01:03:17;;;;;;;16.10;10.70;;;;;;;-0.86;100.00;92179.72;5031005;28;20408;-86
2022/02/02 01:05:44;;;;;;;15.50;10.18;;;;;;;-0.94;100.00;92152.81;5030912;28;20496;-86
2022/02/02 01:10:58;;;;;;;15.80;9.70;;;;;;;-1.29;100.00;92099.44;5030341;28;20125;-86
2022/02/02 01:19:15;;;;;;;16.15;10.80;;;;;;;-1.65;100.00;92091.41;5121003;28;20058;-85
2022/02/02 01:21:56;;;;;;;14.88;9.50;;;;;;;-2.21;100.00;92009.16;5106849;28;20471;-84
2022/02/02 01:29:52;;;;;;;14.07;8.95;;;;;;;-1.51;100.00;92139.50;5106724;28;20065;-88
2022/02/02 01:32:20;;;;;;;15.60;9.90;;;;;;;-1.77;100.00;92141.31;5106447;28;20032;-88
2022/02/02 01:34:47;;;;;;;16.08;9.75;;;;;;;-2.13;100.00;92071.22;5106003;28;20042;-88
2022/02/02 01:37:16;;;;;;;16.90;10.07;;;;;;;-2.13;100.00;92062.91;5103133;28;20050;-88
2022/02/02 01:39:44;;;;;;;16.55;10.75;;;;;;;-2.07;100.00;92050.47;5106078;28;20040;-88
2022/02/02 01:42:15;;;;;;;14.88;9.98;;;;;;;-1.52;100.00;92128.63;5106340;28;20085;-84
2022/02/02 01:44:48;;;;;;;16.00;10.77;;;;;;;-2.05;100.00;92057.84;5103664;28;20044;-85
2022/02/02 01:47:15;;;;;;;18.23;11.07;;;;;;;-2.00;100.00;92053.09;5106650;28;20040;-85
2022/02/02 01:50:13;;;;;;;18.27;10.07;;;;;;;-1.49;100.00;92115.72;5106734;28;20394;-85
2022/02/02 01:53:00;;;;;;;13.85;8.70;;;;;;;-1.66;100.00;92120.03;5106688;28;20056;-85
2022/02/02 01:55:32;;;;;;;14.80;9.43;;;;;;;-2.26;100.00;92053.34;5105902;28;20505;-85
2022/02/02 01:58:11;;;;;;;15.60;10.10;;;;;;;-2.02;100.00;92091.03;5106218;28;20047;-85
2022/02/02 02:00:38;;;;;;;15.38;10.02;;;;;;;-1.91;100.00;92109.25;5106513;28;20067;-85
2022/02/02 02:03:05;;;;;;;14.65;10.27;;;;;;;-1.94;100.00;92105.31;5105759;28;20059;-85
2022/02/02 02:05:33;;;;;;;15.95;9.90;;;;;;;-1.81;100.00;92101.53;5105614;28;20487;-85
2022/02/02 02:08:00;;;;;;;15.77;10.32;;;;;;;-1.83;100.00;92101.69;5105264;28;20507;-85
2022/02/02 02:10:27;;;;;;;14.52;10.18;;;;;;;-2.28;100.00;92024.09;5104832;28;20043;-85
2022/02/02 02:12:58;;;;;;;18.20;10.68;;;;;;;-1.75;100.00;92094.09;5104476;28;20509;-84
2022/02/02 02:15:29;;;;;;;17.63;11.13;;;;;;;-1.69;100.00;92085.13;5102920;28;20135;-84
2022/02/02 02:17:57;;;;;;;16.90;10.98;;;;;;;-1.79;100.00;92077.75;5105376;28;20149;-84
2022/02/02 02:20:24;;;;;;;17.40;11.38;;;;;;;-1.63;100.00;92088.69;5102934;28;20058;-84
2022/02/02 02:22:52;;;;;;;18.95;11.18;;;;;;;-2.01;100.00;92001.22;5105705;28;20052;-87
2022/02/02 02:25:21;;;;;;;20.42;11.77;;;;;;;-1.29;100.00;92085.09;5105711;28;20051;-88
2022/02/02 02:27:48;;;;;;;18.38;11.32;;;;;;;-1.44;100.00;92092.56;5091689;28;20039;-85
2022/02/02 02:30:22;;;;;;;23.27;12.15;;;;;;;-1.47;100.00;92072.75;5092259;28;20044;-86
2022/02/02 02:39:16;;;;;;;29.10;13.48;;;;;;;-1.47;100.00;92062.69;5090214;28;20135;-86
2022/02/02 02:55:53;;;;;;;21.10;13.77;;;;;;;-2.24;100.00;92022.03;5091633;28;20055;-85
2022/02/02 02:58:36;;;;;;;20.98;13.50;;;;;;;-1.76;100.00;92064.06;5091559;28;20051;-85
2022/02/02 03:01:22;;;;;;;22.63;14.30;;;;;;;-1.66;100.00;92071.41;5091420;28;20044;-85
2022/02/02 03:31:26;;;;;;;22.00;14.27;;;;;;;-1.11;100.00;92077.28;5088452;28;20162;-85
2022/02/02 03:53:44;;;;;;;24.73;16.27;;;;;;;-1.33;100.00;92075.50;5086485;27;20373;-83
2022/02/02 04:02:12;;;;;;;20.80;13.50;;;;;;;-2.24;100.00;92001.13;5084718;28;20092;-85
2022/02/02 04:04:47;;;;;;;19.05;12.80;;;;;;;-1.66;100.00;92067.16;5086162;28;21077;-85
2022/02/02 04:07:19;;;;;;;20.55;12.70;;;;;;;-1.67;100.00;92072.38;5083663;28;20072;-84
2022/02/02 04:09:49;;;;;;;21.85;13.50;;;;;;;-1.75;100.00;92073.94;5085753;28;20042;-84
2022/02/02 04:12:28;;;;;;;24.15;14.50;;;;;;;-2.51;100.00;91976.22;5083461;28;20044;-83
2022/02/02 04:15:51;;;;;;;23.67;15.10;;;;;;;-1.78;100.00;92060.91;5083342;28;20037;-82
2022/02/02 04:37:18;;;;;;;24.45;14.85;;;;;;;-1.80;100.00;92068.63;5086335;28;20396;-82
2022/02/02 04:57:14;;;;;;;327.98;125.55;;;;;;;-1.69;100.00;92086.84;5063102;28;20079;-84
2022/02/02 04:59:47;;;;;;;164.98;71.05;;;;;;;-1.66;100.00;92072.19;5064669;28;20068;-82
2022/02/02 05:08:10;;;;;;;35.38;19.83;;;;;;;-2.34;100.00;92024.75;5020697;28;20048;-85
2022/02/02 05:10:46;;;;;;;29.30;16.17;;;;;;;-1.87;100.00;92087.84;5049655;28;20389;-83
2022/02/02 05:16:13;;;;;;;32.13;18.08;;;;;;;-2.20;100.00;92086.19;5049330;28;20118;-83
2022/02/02 05:19:04;;;;;;;32.67;19.25;;;;;;;-2.29;100.00;92077.06;5049178;28;20037;-84
2022/02/02 05:43:54;;;;;;;36.53;22.70;;;;;;;-2.40;100.00;92102.56;5049369;28;20435;-82
2022/02/02 05:49:25;;;;;;;32.00;20.98;;;;;;;-2.42;100.00;92108.53;5049285;28;20060;-83
2022/02/02 05:51:53;;;;;;;45.65;25.88;;;;;;;-2.50;100.00;92110.28;5050418;28;20052;-83
2022/02/02 05:54:20;;;;;;;68.05;37.90;;;;;;;-2.58;100.00;92103.50;5050670;28;20045;-83
2022/02/02 05:56:51;;;;;;;37.17;23.65;;;;;;;-2.34;100.00;92114.50;5050286;28;20484;-82
2022/02/02 05:59:20;;;;;;;37.75;22.35;;;;;;;-2.23;100.00;92124.22;5048904;28;20052;-82
2022/02/02 06:01:51;;;;;;;31.25;19.17;;;;;;;-2.33;100.00;92111.84;5050820;28;20041;-83
2022/02/02 06:04:23;;;;;;;29.90;18.58;;;;;;;-2.15;100.00;92119.22;5048441;28;20124;-83
2022/02/02 06:06:51;;;;;;;31.77;20.55;;;;;;;-2.12;100.00;92123.13;5050390;28;20465;-82
2022/02/02 06:09:19;;;;;;;31.75;20.17;;;;;;;-2.36;100.00;92102.06;5050491;28;20083;-81
2022/02/02 06:11:50;;;;;;;40.40;23.83;;;;;;;-2.29;100.00;92112.28;5050120;28;20127;-82
2022/02/02 06:14:20;;;;;;;35.00;20.83;;;;;;;-2.07;100.00;92138.53;5045010;28;20069;-81
2022/02/02 06:16:47;;;;;;;34.33;22.08;;;;;;;-1.94;100.00;92134.75;5050269;28;20041;-81
2022/02/02 06:19:14;;;;;;;48.55;27.35;;;;;;;-1.92;100.00;92151.25;5047758;28;20136;-81
2022/02/02 06:21:51;;;;;;;44.13;24.73;;;;;;;-1.82;100.00;92151.06;5050332;28;20033;-81
2022/02/02 06:24:31;;;;;;;31.92;20.25;;;;;;;-1.85;100.00;92146.34;5048322;28;20032;-81
2022/02/02 06:27:08;;;;;;;44.13;26.38;;;;;;;-2.02;100.00;92153.16;5048345;28;20037;-80
2022/02/02 06:29:42;;;;;;;33.17;20.40;;;;;;;-2.22;100.00;92152.72;5047465;28;20041;-81
2022/02/02 06:32:14;;;;;;;39.67;23.63;;;;;;;-2.22;100.00;92156.00;5050453;28;20045;-80
2022/02/02 06:34:44;;;;;;;33.97;19.65;;;;;;;-2.87;100.00;92110.56;5050544;28;20041;-82
2022/02/02 06:37:14;;;;;;;35.05;20.83;;;;;;;-2.46;100.00;92166.84;5050225;28;20048;-81
2022/02/02 06:39:41;;;;;;;29.83;19.25;;;;;;;-2.58;100.00;92166.38;5046889;28;20045;-80
2022/02/02 06:42:09;;;;;;;33.08;20.38;;;;;;;-2.80;100.00;92171.03;5048522;28;20045;-80
2022/02/02 06:44:38;;;;;;;34.35;21.02;;;;;;;-2.81;100.00;92169.47;5050180;28;20052;-80
2022/02/02 06:47:05;;;;;;;39.50;23.98;;;;;;;-2.76;100.00;92163.97;5050159;28;20099;-81
2022/02/02 06:49:32;;;;;;;43.30;25.95;;;;;;;-2.67;100.00;92160.53;5049942;28;20045;-81
2022/02/02 06:52:05;;;;;;;47.67;28.02;;;;;;;-2.47;100.00;92161.03;5049986;28;20434;-80
2022/02/02 06:54:47;;;;;;;44.67;27.98;;;;;;;-2.36;100.00;92169.22;5050210;28;20124;-81
2022/02/02 06:57:23;;;;;;;46.28;27.63;;;;;;;-2.30;100.00;92145.94;5049771;28;20536;-81
2022/02/02 07:00:03;;;;;;;45.80;28.40;;;;;;;-2.34;100.00;92162.28;5050156;28;20044;-81
2022/02/02 07:02:43;;;;;;;39.95;24.83;;;;;;;-2.26;100.00;92177.41;5050100;28;20041;-80
2022/02/02 07:05:28;;;;;;;33.63;20.98;;;;;;;-2.40;100.00;92180.53;5049987;28;20049;-81
2022/02/02 07:08:22;;;;;;;32.30;22.30;;;;;;;-2.37;100.00;92182.75;5049647;28;20403;-81
2022/02/02 07:11:06;;;;;;;34.85;20.70;;;;;;;-2.38;100.00;92181.94;5050279;28;20052;-81
2022/02/02 07:13:45;;;;;;;33.72;20.45;;;;;;;-2.49;100.00;92195.63;5049736;28;20080;-81
2022/02/02 07:16:24;;;;;;;28.55;18.27;;;;;;;-2.62;100.00;92188.53;5049831;28;20091;-81
2022/02/02 07:19:03;;;;;;;31.92;18.33;;;;;;;-2.72;100.00;92191.16;5049436;28;20539;-81
2022/02/02 07:21:47;;;;;;;42.85;25.05;;;;;;;-2.66;100.00;92176.41;5049812;28;20041;-81
2022/02/02 07:24:37;;;;;;;29.95;18.20;;;;;;;-2.81;100.00;92189.59;5050047;28;20387;-81
2022/02/02 07:29:58;;;;;;;;;;;;;;;-2.66;100.00;92179.72;5049894;28;20503;-80
2022/02/02 07:32:31;;;;;;;31.05;19.70;;;;;;;-2.93;100.00;92150.63;5049332;28;19928;-81
2022/02/02 07:35:09;;;;;;;29.92;17.52;;;;;;;-2.86;100.00;92192.53;5049252;28;20041;-80
2022/02/02 07:37:43;;;;;;;31.45;19.60;;;;;;;-2.66;100.00;92189.78;5049248;28;20319;-80
2022/02/02 07:40:10;;;;;;;41.20;25.05;;;;;;;-2.72;100.00;92185.38;5049260;28;20499;-80
2022/02/02 07:42:42;;;;;;;35.53;22.73;;;;;;;-2.64;100.00;92174.53;5049311;28;20087;-80
2022/02/02 07:45:12;;;;;;;66.18;39.20;;;;;;;-2.52;100.00;92177.50;5049218;28;20048;-80
2022/02/02 07:47:41;;;;;;;46.65;26.23;;;;;;;-2.57;100.00;92178.78;5049304;28;20542;-80
2022/02/02 07:50:10;;;;;;;46.60;28.70;;;;;;;-2.27;100.00;92183.34;5049348;28;20045;-80
2022/02/02 07:52:38;;;;;;;27.52;17.63;;;;;;;-2.14;100.00;92185.41;5049037;28;20053;-80
2022/02/02 07:55:07;;;;;;;28.75;18.52;;;;;;;-2.19;100.00;92162.44;5048438;28;20049;-80
2022/02/02 07:57:36;;;;;;;68.35;36.78;;;;;;;-2.34;100.00;92139.66;5047327;28;20132;-80
2022/02/02 08:00:13;;;;;;;39.03;24.80;;;;;;;-1.96;100.00;92174.38;5048433;28;20052;-80
2022/02/02 08:02:52;;;;;;;31.13;19.50;;;;;;;-1.68;100.00;92172.28;5049518;28;20045;-80
2022/02/02 08:05:20;;;;;;;46.55;26.40;;;;;;;-1.57;100.00;92170.38;5049123;28;20503;-80
2022/02/02 08:07:56;;;;;;;26.60;15.85;;;;;;;-1.88;100.00;92172.66;5049548;28;20045;-80
2022/02/02 08:10:25;;;;;;;45.83;28.85;;;;;;;-2.10;100.00;92148.13;5049207;28;20076;-80
2022/02/02 08:12:56;;;;;;;82.72;50.60;;;;;;;-1.57;100.00;92166.09;5048919;28;20060;-80
2022/02/02 08:15:28;;;;;;;26.48;18.15;;;;;;;-1.69;100.00;92164.88;5048853;28;20051;-80
2022/02/02 08:17:55;;;;;;;27.58;17.88;;;;;;;-1.68;100.00;92164.72;5048885;28;20041;-80
2022/02/02 08:20:23;;;;;;;25.13;14.48;;;;;;;-1.62;100.00;92163.31;5049133;28;20133;-80
2022/02/02 08:22:50;;;;;;;24.42;15.85;;;;;;;-1.50;100.00;92153.66;5049385;28;20045;-80
2022/02/02 08:25:25;;;;;;;23.60;14.30;;;;;;;-1.14;100.00;92163.31;5048757;28;20041;-80
2022/02/02 08:27:53;;;;;;;26.50;14.80;;;;;;;-1.03;100.00;92169.72;5049450;28;20048;-80
2022/02/02 08:30:23;;;;;;;21.60;13.80;;;;;;;-0.86;100.00;92172.16;5048841;28;20083;-80
2022/02/02 08:32:57;;;;;;;22.25;14.50;;;;;;;-0.84;100.00;92178.59;5048516;28;20051;-79
2022/02/02 08:35:25;;;;;;;31.20;16.88;;;;;;;-0.68;100.00;92175.19;5048972;28;20449;-79
2022/02/02 08:37:59;;;;;;;22.50;13.23;;;;;;;-0.97;100.00;92143.06;5049133;28;20045;-79
2022/02/02 08:40:31;;;;;;;27.08;15.95;;;;;;;-0.62;100.00;92178.78;5052894;28;20437;-79
2022/02/02 08:43:04;;;;;;;18.23;12.18;;;;;;;-0.95;100.00;92172.19;5052701;28;20037;-79
2022/02/02 08:45:33;;;;;;;25.83;16.23;;;;;;;-0.84;100.00;92150.06;5052700;28;20073;-80
2022/02/02 08:48:05;;;;;;;30.08;18.40;;;;;;;-0.84;100.00;92155.91;5052558;28;20056;-79
2022/02/02 08:50:41;;;;;;;23.83;14.35;;;;;;;-0.82;100.00;92159.03;5052345;28;20041;-80
2022/02/02 08:53:15;;;;;;;22.10;13.30;;;;;;;-0.75;100.00;92145.78;5052294;28;20488;-80
2022/02/02 08:56:04;;;;;;;27.45;16.90;;;;;;;-0.50;100.00;92165.78;5052079;28;20045;-79
2022/02/02 08:58:35;;;;;;;24.80;14.57;;;;;;;-0.35;100.00;92161.59;5052415;28;20435;-79
2022/02/02 09:01:04;;;;;;;25.33;14.23;;;;;;;0.07;100.00;92161.25;5052306;28;20125;-80
2022/02/02 09:06:16;;;;;;;20.23;13.13;;;;;;;-0.34;100.00;92154.78;5052374;28;20090;-79
2022/02/02 09:08:45;;;;;;;27.00;16.00;;;;;;;0.02;100.00;92153.41;5051880;28;20041;-80
2022/02/02 09:25:10;;;;;;;17.45;11.50;;;;;;;-0.20;100.00;92155.78;5051880;28;20037;-79
2022/02/02 09:36:00;;;;;;;18.38;11.20;;;;;;;0.52;100.00;92161.31;5015331;28;20102;-77
2022/02/02 09:38:28;;;;;;;16.60;10.38;;;;;;;0.44;100.00;92168.94;5051442;28;20045;-78
2022/02/02 09:43:46;;;;;;;21.27;10.70;;;;;;;0.62;100.00;92161.03;5050817;28;20489;-78
2022/02/02 09:46:16;;;;;;;17.35;11.60;;;;;;;0.53;100.00;92145.97;5051499;28;20053;-77
2022/02/02 09:48:47;;;;;;;17.85;9.50;;;;;;;0.59;100.00;92148.75;5051181;28;20523;-77
2022/02/02 09:51:23;;;;;;;16.08;10.40;;;;;;;0.63;100.00;92144.91;5051337;28;20053;-77
2022/02/02 09:53:57;;;;;;;20.73;10.57;;;;;;;0.43;100.00;92147.97;5051276;28;20114;-77
2022/02/02 09:56:39;;;;;;;14.88;9.60;;;;;;;0.34;100.00;92149.00;5051443;28;20107;-77
2022/02/02 09:59:22;;;;;;;30.77;18.05;;;;;;;-0.04;100.00;92147.31;5050931;28;20044;-77
2022/02/02 10:02:16;;;;;;;23.67;13.75;;;;;;;0.03;100.00;92140.63;5051107;28;20133;-77
2022/02/02 10:05:01;;;;;;;21.33;12.80;;;;;;;0.23;100.00;92133.31;5051523;28;20040;-78
2022/02/02 10:07:48;;;;;;;22.70;13.27;;;;;;;0.23;100.00;92137.59;5050774;28;20056;-77
2022/02/02 10:13:17;;;;;;;;;;;;;;;0.43;100.00;92139.59;5050763;28;20056;-77
2022/02/02 10:15:45;;;;;;;14.50;9.32;;;;;;;0.43;100.00;92140.41;5050901;28;19971;-77
2022/02/02 10:18:18;;;;;;;15.00;9.15;;;;;;;0.29;100.00;92138.63;5051015;28;20862;-78
2022/02/02 10:20:45;;;;;;;17.10;9.52;;;;;;;0.49;100.00;92139.69;5050692;28;20045;-77
2022/02/02 10:23:16;;;;;;;22.65;11.13;;;;;;;0.25;100.00;92141.53;5050817;28;20045;-78
2022/02/02 10:25:47;;;;;;;14.00;8.57;;;;;;;-0.42;100.00;92143.81;5050760;28;20061;-78
2022/02/02 10:28:15;;;;;;;16.63;8.20;;;;;;;-0.54;100.00;92143.41;5050788;28;20043;-78
2022/02/02 10:30:46;;;;;;;19.38;11.75;;;;;;;-0.50;100.00;92133.00;5050694;28;20056;-77
2022/02/02 10:33:13;;;;;;;15.20;9.02;;;;;;;-0.40;100.00;92146.16;5050324;28;20041;-79
2022/02/02 10:35:42;;;;;;;23.00;12.15;;;;;;;-0.49;100.00;92152.22;5050673;28;20167;-78
2022/02/02 10:38:11;;;;;;;35.58;18.52;;;;;;;-0.36;100.00;92154.19;5050453;28;20439;-78
2022/02/02 10:40:50;;;;;;;20.25;11.10;;;;;;;-0.40;100.00;92156.25;5048190;28;20464;-79
2022/02/02 10:43:32;;;;;;;14.68;9.93;;;;;;;-0.25;100.00;92147.94;5048358;28;20136;-79
2022/02/02 10:46:12;;;;;;;18.23;9.30;;;;;;;-0.34;100.00;92140.44;5050175;28;20049;-78
2022/02/02 10:48:43;;;;;;;15.90;9.30;;;;;;;-0.95;100.00;92123.50;5050005;28;20373;-81
2022/02/02 10:51:17;;;;;;;15.88;8.88;;;;;;;-0.81;100.00;92145.50;5050124;28;20045;-81
2022/02/02 10:56:50;;;;;;;18.77;8.55;;;;;;;-0.95;100.00;92123.50;5046031;28;20060;-81
2022/02/02 10:59:42;;;;;;;12.25;6.50;;;;;;;-0.84;100.00;92118.09;5050094;28;20072;-81
2022/02/02 11:07:39;;;;;;;14.50;7.78;;;;;;;-0.18;99.32;92133.72;5049720;28;20072;-82
2022/02/02 11:10:07;;;;;;;16.35;8.18;;;;;;;-0.15;100.00;92113.94;5049983;28;20048;-82
2022/02/02 11:12:38;;;;;;;16.00;8.82;;;;;;;-0.01;98.11;92131.81;5049588;28;20403;-82
2022/02/02 11:15:24;;;;;;;12.32;8.32;;;;;;;0.08;97.13;92138.34;5049420;28;20485;-82
2022/02/02 11:17:58;;;;;;;16.00;7.40;;;;;;;0.34;97.21;92133.84;5049468;28;20049;-82
2022/02/02 11:20:26;;;;;;;18.13;9.23;;;;;;;0.13;97.25;92140.34;5049771;28;20073;-82
2022/02/02 11:22:54;;;;;;;14.27;8.35;;;;;;;0.14;98.90;92131.84;5049222;28;20041;-82
2022/02/02 11:25:33;;;;;;;14.82;8.48;;;;;;;0.36;99.40;92129.41;5049578;28;20048;-82
2022/02/02 11:28:04;;;;;;;13.70;7.68;;;;;;;-0.47;95.80;92082.97;5050036;28;20114;-82
2022/02/02 11:30:43;;;;;;;17.27;8.77;;;;;;;-0.42;96.25;92105.16;5050080;28;20041;-82
2022/02/02 11:33:22;;;;;;;12.38;6.75;;;;;;;-0.41;97.12;92126.94;5049448;28;20143;-82
2022/02/02 11:35:52;;;;;;;13.45;7.05;;;;;;;-0.15;97.98;92115.69;5049063;28;20044;-82
2022/02/02 11:38:44;;;;;;;15.80;8.63;;;;;;;-0.17;97.15;92123.44;5049534;28;20041;-82
2022/02/02 11:44:18;;;;;;;10.55;6.40;;;;;;;-0.24;93.91;92112.44;5035393;28;20409;-82
2022/02/02 11:46:49;;;;;;;;;;;;;;;-0.38;93.28;92115.72;5050013;28;20055;-82
2022/02/02 11:49:18;;;;;;;9.82;6.15;;;;;;;-0.43;94.84;92111.19;5049640;28;19967;-82
2022/02/02 11:51:47;;;;;;;13.45;6.85;;;;;;;-0.21;95.69;92103.75;5049088;28;20075;-82
2022/02/02 11:54:16;;;;;;;13.30;8.20;;;;;;;-0.12;95.85;92097.69;5049224;28;20143;-82
2022/02/02 11:57:17;;;;;;;16.08;8.10;;;;;;;0.23;97.34;92095.44;5045036;28;20419;-82
2022/02/02 12:05:27;;;;;;;17.90;10.25;;;;;;;0.07;94.66;92100.66;5046058;28;20568;-82
2022/02/02 12:08:02;;;;;;;12.13;7.22;;;;;;;0.16;97.27;92069.31;5049118;28;20127;-82
2022/02/02 12:10:54;;;;;;;12.93;7.80;;;;;;;0.56;95.62;92093.50;5048782;28;20080;-82
2022/02/02 12:47:30;;;;;;;19.50;9.77;;;;;;;0.87;96.67;92089.94;5052172;28;20187;-80
2022/02/02 12:58:18;;;;;;;13.65;7.63;;;;;;;0.77;92.39;92115.53;5051952;28;20124;-81
2022/02/02 13:01:08;;;;;;;14.48;8.63;;;;;;;0.98;94.62;92117.34;5051944;28;20506;-80
2022/02/02 13:03:35;;;;;;;15.63;9.15;;;;;;;0.97;96.66;92117.50;5053108;28;20049;-81
2022/02/02 13:06:04;;;;;;;12.30;6.78;;;;;;;0.41;92.86;92078.38;5052795;28;20053;-81
2022/02/02 13:08:31;;;;;;;16.73;10.95;;;;;;;0.23;90.52;92100.47;5051923;28;20087;-81
2022/02/02 13:10:59;;;;;;;15.85;8.50;;;;;;;0.34;92.92;92113.63;5052272;28;20037;-80
2022/02/02 13:13:28;;;;;;;20.10;10.68;;;;;;;0.20;91.67;92079.84;5051988;28;20048;-81
2022/02/02 13:16:07;;;;;;;21.98;12.00;;;;;;;0.38;93.23;92107.28;5052568;28;20056;-81
2022/02/02 13:18:37;;;;;;;32.47;15.90;;;;;;;0.12;93.50;92080.72;5052166;28;20045;-80
2022/02/02 13:21:12;;;;;;;8.27;5.55;;;;;;;0.19;91.55;92106.84;5052441;28;20114;-82
2022/02/02 13:23:48;;;;;;;12.70;8.02;;;;;;;0.20;93.45;92092.47;5051410;28;20041;-83
2022/02/02 13:26:26;;;;;;;10.32;6.95;;;;;;;-0.02;93.53;92084.81;5051585;28;20480;-83
2022/02/02 13:29:01;;;;;;;16.55;8.07;;;;;;;0.12;94.54;92093.34;5051908;28;20041;-83
2022/02/02 13:31:46;;;;;;;11.13;6.57;;;;;;;0.10;93.85;92095.25;5051380;28;20137;-82
2022/02/02 13:34:22;;;;;;;13.20;6.55;;;;;;;-0.06;93.47;92076.78;5052233;28;20481;-82
2022/02/02 13:37:15;;;;;;;11.70;6.45;;;;;;;-0.08;93.12;92088.81;5052439;28;20045;-82
2022/02/02 13:42:59;;;;;;;22.42;11.13;;;;;;;0.16;94.25;92096.31;5051359;28;20087;-82
2022/02/02 13:51:14;;;;;;;17.50;9.27;;;;;;;0.57;95.84;92098.38;5050995;28;20424;-83
2022/02/02 13:59:45;;;;;;;42.70;17.73;;;;;;;0.20;93.75;92095.00;5051291;28;20049;-83
2022/02/02 14:03:44;;;;;;;12.27;6.75;;;;;;;0.25;95.28;92116.28;5050826;28;20492;-83
2022/02/02 14:05:20;;;;;;;20.75;10.02;;;;;;;0.22;95.98;92111.56;5051051;28;20051;-83
2022/02/02 14:07:57;;;;;;;29.67;22.38;;;;;;;0.28;96.73;92099.19;5050863;28;20045;-83
2022/02/02 14:10:37;;;;;;;17.15;9.77;;;;;;;0.15;96.87;92084.63;5051048;28;20133;-82
2022/02/02 14:32:24;;;;;;;17.15;9.50;;;;;;;0.63;97.67;92105.25;5049206;28;20064;-79
2022/02/02 14:34:50;;;;;;;23.77;14.25;;;;;;;0.81;99.54;92109.16;5050271;28;20090;-80
2022/02/02 14:37:22;;;;;;;18.45;10.13;;;;;;;0.65;98.07;92095.75;5049220;28;20044;-79
2022/02/02 14:39:56;;;;;;;21.83;13.35;;;;;;;0.91;99.31;92112.19;5049829;28;20056;-79
2022/02/02 14:42:29;;;;;;;35.97;18.60;;;;;;;0.85;98.30;92107.06;5050112;28;20119;-79
2022/02/02 14:45:02;;;;;;;26.35;15.35;;;;;;;0.95;97.78;92099.19;5049900;28;20037;-79
2022/02/02 14:47:36;;;;;;;18.00;9.38;;;;;;;0.94;95.52;92118.63;5050063;28;20041;-78
2022/02/02 14:50:11;;;;;;;16.40;8.70;;;;;;;0.88;94.87;92124.41;5050166;28;20057;-78
2022/02/02 14:52:50;;;;;;;17.58;9.68;;;;;;;0.81;93.99;92119.28;5049917;28;20060;-79
2022/02/02 15:09:30;;;;;;;13.82;8.00;;;;;;;0.23;95.58;92122.44;5049323;28;20055;-80
2022/02/02 15:29:08;;;;;;;20.33;13.15;;;;;;;-0.15;99.14;92144.25;5049157;28;20055;-82
2022/02/02 15:31:54;;;;;;;19.92;13.30;;;;;;;-0.18;100.00;92144.56;5048338;28;20056;-82
2022/02/02 15:34:33;;;;;;;17.23;9.63;;;;;;;-0.27;100.00;92146.38;5046082;28;20048;-82
2022/02/02 15:39:50;;;;;;;22.77;11.68;;;;;;;-0.20;100.00;92145.69;5036855;28;20048;-83
2022/02/02 15:42:30;;;;;;;18.90;11.73;;;;;;;-0.14;100.00;92150.06;5048539;28;20044;-82
2022/02/02 15:58:35;;;;;;;56.50;23.58;;;;;;;-0.45;100.00;92158.50;5045106;28;20048;-81
2022/02/02 16:03:47;;;;;;;36.60;15.90;;;;;;;-0.37;100.00;92158.44;5045702;28;20055;-82
2022/02/02 16:06:18;;;;;;;25.65;14.75;;;;;;;-0.22;100.00;92171.13;5049122;28;20124;-82
2022/02/02 16:08:46;;;;;;;27.02;14.48;;;;;;;-0.47;100.00;92146.06;5048988;28;20530;-82
2022/02/02 16:11:20;;;;;;;21.55;12.68;;;;;;;-0.28;100.00;92170.06;5049252;28;20411;-81
2022/02/02 16:13:50;;;;;;;24.55;15.05;;;;;;;-0.19;100.00;92175.03;5048753;28;20084;-81
2022/02/02 16:16:40;;;;;;;17.73;9.80;;;;;;;-0.36;100.00;92157.50;5048922;28;20107;-81
2022/02/02 16:19:16;;;;;;;30.13;16.20;;;;;;;-0.31;100.00;92192.31;5048971;28;20041;-81
2022/02/02 16:25:02;;;;;;;43.83;21.17;;;;;;;-0.18;100.00;92182.44;5048854;28;20130;-81
2022/02/02 16:38:28;;;;;;;28.25;18.10;;;;;;;0.10;100.00;92192.00;5048737;28;20056;-82
2022/02/02 16:40:57;;;;;;;25.98;15.63;;;;;;;-0.31;99.71;92185.53;5048743;28;20045;-81
2022/02/02 16:43:23;;;;;;;40.97;21.63;;;;;;;-0.17;100.00;92198.38;5045592;28;20045;-81
2022/02/02 16:45:53;;;;;;;71.75;35.50;;;;;;;-0.18;100.00;92194.28;5047748;28;20037;-81
2022/02/02 16:48:21;;;;;;;16.27;8.77;;;;;;;-0.29;100.00;92192.91;5048482;28;20091;-81
2022/02/02 16:50:53;;;;;;;22.13;13.88;;;;;;;-0.36;100.00;92177.69;5048209;28;20392;-80
2022/02/02 16:53:35;;;;;;;17.35;8.52;;;;;;;-0.53;100.00;92202.22;5048875;28;20049;-80
2022/02/02 16:56:08;;;;;;;12.13;7.68;;;;;;;-0.63;100.00;92199.94;5048409;28;20049;-80
2022/02/02 17:31:25;;;;;;;15.65;7.30;;;;;;;-0.87;100.00;92239.44;4879138;28;20488;-81
2022/02/02 17:33:56;;;;;;;15.07;8.02;;;;;;;-1.01;100.00;92218.25;5044375;28;20049;-81
2022/02/02 17:36:28;;;;;;;14.80;7.35;;;;;;;-0.84;100.00;92243.34;5031541;28;20056;-82
2022/02/02 17:39:00;;;;;;;9.43;5.35;;;;;;;-0.89;100.00;92236.28;5032201;28;20051;-82
2022/02/02 17:41:57;;;;;;;18.25;9.57;;;;;;;-0.85;100.00;92236.75;5031322;28;20041;-81
2022/02/02 18:20:11;;;;;;;11.80;8.23;;;;;;;-1.27;100.00;92246.97;5030615;28;20137;-80
2022/02/02 18:22:44;;;;;;;57.72;21.23;;;;;;;-1.10;100.00;92269.63;5030887;28;20045;-80
2022/02/02 18:25:17;;;;;;;10.77;6.00;;;;;;;-1.17;100.00;92264.44;5030991;28;20048;-81
2022/02/02 18:27:57;;;;;;;9.65;5.70;;;;;;;-1.19;100.00;92278.13;5030559;28;20041;-80
2022/02/02 18:30:37;;;;;;;11.75;7.10;;;;;;;-1.27;100.00;92273.88;5030642;28;20044;-81
2022/02/02 18:33:22;;;;;;;11.48;7.22;;;;;;;-1.31;100.00;92277.69;5030872;28;20095;-81
2022/02/02 18:35:56;;;;;;;;;;;;;;;-1.31;100.00;92270.91;5030933;28;20045;-81
2022/02/02 18:47:01;;;;;;;12.65;7.15;;;;;;;-1.28;100.00;92287.44;5030315;28;20056;-81
2022/02/02 18:49:47;;;;;;;8.65;6.35;;;;;;;-1.16;100.00;92291.19;5030337;28;20045;-80
2022/02/02 18:52:41;;;;;;;10.25;6.75;;;;;;;-1.01;100.00;92282.97;5010568;28;20057;-81
2022/02/02 18:55:19;;;;;;;9.40;6.07;;;;;;;-0.96;100.00;92303.44;5010139;28;20049;-80